createdAt,value
2017-03-30T15:52:41.660Z,22.98
2017-03-30T15:53:12.555Z,22.94
2017-03-30T15:54:12.512Z,22.77
2017-03-30T15:55:12.465Z,22.67
2017-03-30T15:56:12.572Z,22.57
2017-03-30T15:57:12.273Z,22.46
2017-03-30T15:58:12.264Z,22.54
2017-03-30T15:59:12.220Z,22.4
2017-03-30T16:00:12.489Z,22.42
2017-03-30T16:01:12.227Z,22.37
2017-03-30T16:02:12.641Z,22.31
2017-03-30T16:03:12.492Z,22.27
2017-03-30T16:04:12.600Z,22.4
2017-03-30T16:05:12.550Z,22.36
2017-03-30T16:06:12.558Z,22.31
2017-03-30T16:07:12.296Z,22.28
2017-03-30T16:08:12.565Z,22.3
2017-03-30T16:09:13.715Z,22.33
2017-03-30T16:10:12.260Z,22.27
2017-03-30T16:11:12.259Z,22.24
2017-03-30T16:12:12.577Z,22.24
2017-03-30T16:13:12.276Z,22.33
2017-03-30T16:14:11.938Z,22.21
2017-03-30T16:15:12.536Z,22.18
2017-03-30T16:16:12.641Z,22.21
2017-03-30T16:17:12.593Z,22.4
2017-03-30T16:18:12.552Z,22.42
2017-03-30T16:19:12.339Z,22.49
2017-03-30T16:20:13.455Z,22.58
2017-03-30T16:21:12.561Z,22.49
2017-03-30T16:22:12.303Z,22.6
2017-03-30T16:23:12.578Z,22.6
2017-03-30T16:24:12.629Z,22.58
2017-03-30T16:25:12.635Z,22.62
2017-03-30T16:26:12.645Z,22.57
2017-03-30T16:27:12.335Z,22.68
2017-03-30T16:28:11.994Z,22.72
2017-03-30T16:29:12.607Z,22.72
2017-03-30T16:30:12.614Z,22.72
2017-03-30T16:31:13.475Z,22.68
2017-03-30T16:32:12.681Z,22.68
2017-03-30T16:33:12.368Z,22.77
2017-03-30T16:34:12.687Z,22.72
2017-03-30T16:35:12.646Z,22.76
2017-03-30T16:36:12.444Z,22.79
2017-03-30T16:37:12.711Z,22.82
2017-03-30T16:38:12.060Z,22.77
2017-03-30T16:39:12.773Z,22.82
2017-03-30T16:40:13.302Z,22.73
2017-03-30T16:41:12.737Z,22.8
2017-03-30T16:42:12.995Z,22.82
2017-03-30T16:43:12.507Z,22.77
2017-03-30T16:44:12.497Z,22.79
2017-03-30T16:45:12.716Z,22.8
2017-03-30T16:46:12.768Z,22.77
2017-03-30T16:47:12.733Z,22.7
2017-03-30T16:48:12.431Z,22.68
2017-03-30T16:49:12.793Z,22.61
2017-03-30T16:50:12.802Z,22.65
2017-03-30T16:51:13.342Z,22.54
2017-03-30T16:52:12.812Z,22.6
2017-03-30T16:53:12.869Z,22.57
2017-03-30T16:54:12.825Z,22.6
2017-03-30T16:55:12.833Z,22.58
2017-03-30T16:56:12.789Z,22.6
2017-03-30T16:57:12.845Z,22.62
2017-03-30T16:58:12.586Z,22.6
2017-03-30T16:59:12.807Z,22.57
2017-03-30T17:00:12.551Z,22.54
2017-03-30T17:01:12.611Z,22.54
2017-03-30T17:02:12.766Z,22.47
2017-03-30T17:03:12.835Z,22.65
2017-03-30T17:04:12.538Z,22.51
2017-03-30T17:05:12.587Z,22.57
2017-03-30T17:06:12.958Z,22.51
2017-03-30T17:07:12.915Z,22.52
2017-03-30T17:08:12.870Z,22.54
2017-03-30T17:09:12.301Z,22.47
2017-03-30T17:10:12.884Z,22.52
2017-03-30T17:11:12.939Z,22.42
2017-03-30T17:12:12.896Z,22.52
2017-03-30T17:13:12.956Z,22.46
2017-03-30T17:14:12.702Z,22.46
2017-03-30T17:15:13.940Z,22.46
2017-03-30T17:16:13.225Z,22.42
2017-03-30T17:17:12.928Z,22.52
2017-03-30T17:18:12.938Z,22.57
2017-03-30T17:19:12.944Z,22.6
2017-03-30T17:20:13.007Z,22.43
2017-03-30T17:21:12.959Z,22.39
2017-03-30T17:22:12.968Z,22.54
2017-03-30T17:23:12.970Z,22.37
2017-03-30T17:24:12.714Z,22.4
2017-03-30T17:25:12.773Z,22.4
2017-03-30T17:26:14.228Z,22.37
2017-03-30T17:27:13.049Z,22.39
2017-03-30T17:28:13.058Z,22.42
2017-03-30T17:29:12.948Z,22.37
2017-03-30T17:30:12.817Z,22.43
2017-03-30T17:31:12.810Z,22.36
2017-03-30T17:32:12.776Z,22.4
2017-03-30T17:33:13.087Z,22.39
2017-03-30T17:34:13.047Z,22.28
2017-03-30T17:35:13.057Z,22.28
2017-03-30T17:36:13.060Z,22.3
2017-03-30T17:37:14.139Z,22.24
2017-03-30T17:38:13.134Z,22.28
2017-03-30T17:39:13.087Z,22.31
2017-03-30T17:40:13.136Z,22.24
2017-03-30T17:41:12.875Z,22.3
2017-03-30T17:42:12.785Z,22.33
2017-03-30T17:43:13.154Z,22.3
2017-03-30T17:44:13.108Z,22.27
2017-03-30T17:45:13.167Z,22.27
2017-03-30T17:46:14.548Z,22.35
2017-03-30T17:47:13.183Z,22.24
2017-03-30T17:48:13.676Z,22.21
2017-03-30T17:49:13.143Z,22.25
2017-03-30T17:50:13.203Z,22.24
2017-03-30T17:51:13.153Z,22.24
2017-03-30T17:52:12.852Z,22.22
2017-03-30T17:53:13.218Z,22.21
2017-03-30T17:54:13.276Z,22.28
2017-03-30T17:55:13.181Z,22.2
2017-03-30T17:56:12.976Z,22.22
2017-03-30T17:57:14.396Z,22.21
2017-03-30T17:58:13.253Z,22.18
2017-03-30T17:59:13.558Z,22.24
2017-03-30T18:00:13.217Z,22.21
2017-03-30T18:01:13.273Z,22.2
2017-03-30T18:02:13.230Z,22.25
2017-03-30T18:03:13.285Z,22.2
2017-03-30T18:04:13.242Z,22.2
2017-03-30T18:05:13.256Z,22.22
2017-03-30T18:06:13.256Z,22.2
2017-03-30T18:07:12.949Z,22.15
2017-03-30T18:08:13.966Z,22.18
2017-03-30T18:09:13.273Z,22.22
2017-03-30T18:10:13.335Z,22.21
2017-03-30T18:11:13.287Z,22.15
2017-03-30T18:12:13.031Z,22.21
2017-03-30T18:13:13.404Z,22.22
2017-03-30T18:14:13.309Z,22.18
2017-03-30T18:15:13.363Z,22.2
2017-03-30T18:16:13.375Z,22.21
2017-03-30T18:17:12.702Z,22.18
2017-03-30T18:18:13.333Z,22.22
2017-03-30T18:19:13.539Z,22.21
2017-03-30T18:20:13.334Z,22.2
2017-03-30T18:21:13.356Z,22.22
2017-03-30T18:22:13.046Z,22.25
2017-03-30T18:23:13.364Z,22.2
2017-03-30T18:24:13.059Z,22.21
2017-03-30T18:25:13.431Z,22.18
2017-03-30T18:26:13.127Z,22.2
2017-03-30T18:27:13.397Z,22.25
2017-03-30T18:28:13.400Z,22.14
2017-03-30T18:29:13.457Z,22.24
2017-03-30T18:30:13.249Z,22.21
2017-03-30T18:31:13.471Z,22.18
2017-03-30T18:32:13.113Z,22.21
2017-03-30T18:33:13.435Z,22.18
2017-03-30T18:34:13.440Z,22.24
2017-03-30T18:35:13.184Z,22.17
2017-03-30T18:36:13.138Z,22.12
2017-03-30T18:37:13.456Z,22.21
2017-03-30T18:38:13.462Z,22.2
2017-03-30T18:39:13.160Z,22.18
2017-03-30T18:40:13.527Z,22.12
2017-03-30T18:41:13.486Z,22.2
2017-03-30T18:42:13.593Z,22.1
2017-03-30T18:43:14.797Z,22.17
2017-03-30T18:44:13.291Z,22.14
2017-03-30T18:45:13.572Z,22.12
2017-03-30T18:46:13.569Z,22.14
2017-03-30T18:47:13.572Z,22.15
2017-03-30T18:48:13.530Z,22.15
2017-03-30T18:49:13.539Z,22.1
2017-03-30T18:50:13.593Z,22.12
2017-03-30T18:51:13.288Z,22.14
2017-03-30T18:52:15.207Z,22.12
2017-03-30T18:53:13.612Z,22.07
2017-03-30T18:54:14.519Z,22.06
2017-03-30T18:55:13.269Z,22.07
2017-03-30T18:56:13.586Z,22.06
2017-03-30T18:57:13.691Z,22.06
2017-03-30T18:58:13.332Z,22.1
2017-03-30T18:59:13.342Z,22.06
2017-03-30T19:00:13.427Z,22.05
2017-03-30T19:01:13.623Z,22.05
2017-03-30T19:02:13.305Z,22.09
2017-03-30T19:03:14.586Z,22.05
2017-03-30T19:04:13.685Z,22.09
2017-03-30T19:05:14.193Z,22.09
2017-03-30T19:06:13.645Z,22.09
2017-03-30T19:07:13.703Z,22.05
2017-03-30T19:08:13.766Z,22.06
2017-03-30T19:09:13.666Z,22.02
2017-03-30T19:10:13.674Z,22.03
2017-03-30T19:11:13.681Z,22.03
2017-03-30T19:12:13.686Z,22.05
2017-03-30T19:13:13.745Z,22.05
2017-03-30T19:14:14.847Z,22.02
2017-03-30T19:15:13.757Z,22.07
2017-03-30T19:16:14.252Z,22.07
2017-03-30T19:17:13.768Z,22.06
2017-03-30T19:18:13.413Z,22.14
2017-03-30T19:19:13.739Z,22.05
2017-03-30T19:20:13.735Z,22.14
2017-03-30T19:21:13.116Z,22.02
2017-03-30T19:22:13.488Z,22.09
2017-03-30T19:23:13.859Z,22.06
2017-03-30T19:24:13.766Z,22.06
2017-03-30T19:25:14.883Z,22.06
2017-03-30T19:26:13.463Z,22.02
2017-03-30T19:27:14.331Z,22.06
2017-03-30T19:28:14.089Z,22.12
2017-03-30T19:29:13.846Z,22.02
2017-03-30T19:30:13.857Z,22.09
2017-03-30T19:31:13.809Z,22.15
2017-03-30T19:32:13.552Z,22
2017-03-30T19:33:13.821Z,22.02
2017-03-30T19:34:13.876Z,22.03
2017-03-30T19:35:13.833Z,22.06
2017-03-30T19:36:14.847Z,22.1
2017-03-30T19:37:13.899Z,22.07
2017-03-30T19:38:14.061Z,22.05
2017-03-30T19:39:13.858Z,22
2017-03-30T19:40:13.557Z,22.03
2017-03-30T19:41:13.924Z,22.03
2017-03-30T19:42:13.932Z,22
2017-03-30T19:43:13.625Z,21.94
2017-03-30T19:44:13.579Z,21.91
2017-03-30T19:45:13.953Z,22
2017-03-30T19:46:13.956Z,21.94
2017-03-30T19:47:14.615Z,22
2017-03-30T19:48:13.976Z,21.91
2017-03-30T19:49:13.925Z,21.94
2017-03-30T19:50:13.932Z,22.02
2017-03-30T19:51:13.987Z,21.91
2017-03-30T19:52:13.995Z,21.86
2017-03-30T19:53:14.050Z,21.91
2017-03-30T19:54:13.957Z,22
2017-03-30T19:55:13.655Z,21.91
2017-03-30T19:56:13.972Z,21.9
2017-03-30T19:57:13.662Z,21.92
2017-03-30T19:58:14.681Z,21.99
2017-03-30T19:59:13.989Z,21.94
2017-03-30T20:00:14.030Z,21.94
2017-03-30T20:01:14.055Z,21.84
2017-03-30T20:02:14.008Z,22.02
2017-03-30T20:03:13.495Z,21.92
2017-03-30T20:04:13.757Z,21.9
2017-03-30T20:05:14.058Z,21.94
2017-03-30T20:06:14.133Z,21.99
2017-03-30T20:07:13.727Z,21.99
2017-03-30T20:08:13.733Z,21.91
2017-03-30T20:09:14.193Z,21.96
2017-03-30T20:10:14.110Z,21.98
2017-03-30T20:11:13.756Z,21.92
2017-03-30T20:12:14.075Z,21.99
2017-03-30T20:13:13.817Z,21.92
2017-03-30T20:14:14.138Z,21.91
2017-03-30T20:15:14.096Z,21.9
2017-03-30T20:16:14.198Z,21.91
2017-03-30T20:17:13.843Z,21.9
2017-03-30T20:18:14.114Z,21.9
2017-03-30T20:19:14.116Z,21.92
2017-03-30T20:20:14.068Z,21.9
2017-03-30T20:21:14.130Z,21.94
2017-03-30T20:22:13.881Z,21.98
2017-03-30T20:23:14.142Z,21.86
2017-03-30T20:24:15.250Z,21.84
2017-03-30T20:25:14.209Z,21.91
2017-03-30T20:26:13.852Z,21.86
2017-03-30T20:27:14.215Z,21.83
2017-03-30T20:28:14.174Z,21.9
2017-03-30T20:29:14.181Z,21.84
2017-03-30T20:30:14.235Z,21.86
2017-03-30T20:31:14.194Z,21.88
2017-03-30T20:32:14.201Z,21.83
2017-03-30T20:33:15.208Z,21.88
2017-03-30T20:34:13.904Z,21.86
2017-03-30T20:35:14.955Z,21.88
2017-03-30T20:36:13.914Z,21.83
2017-03-30T20:37:14.331Z,21.84
2017-03-30T20:38:14.238Z,21.8
2017-03-30T20:39:14.343Z,21.83
2017-03-30T20:40:14.355Z,21.94
2017-03-30T20:41:14.256Z,21.9
2017-03-30T20:42:14.367Z,21.91
2017-03-30T20:43:14.329Z,21.88
2017-03-30T20:44:15.279Z,21.79
2017-03-30T20:45:14.019Z,21.82
2017-03-30T20:46:14.590Z,21.83
2017-03-30T20:47:14.345Z,21.79
2017-03-30T20:48:14.347Z,21.86
2017-03-30T20:49:14.310Z,21.77
2017-03-30T20:50:14.314Z,21.8
2017-03-30T20:51:14.323Z,21.75
2017-03-30T20:52:14.329Z,21.82
2017-03-30T20:53:15.301Z,21.82
2017-03-30T20:54:14.075Z,21.82
2017-03-30T20:55:15.093Z,21.84
2017-03-30T20:56:14.038Z,21.75
2017-03-30T20:57:14.433Z,21.79
2017-03-30T20:58:14.365Z,21.77
2017-03-30T20:59:14.368Z,21.8
2017-03-30T21:00:14.485Z,21.8
2017-03-30T21:01:14.118Z,21.9
2017-03-30T21:02:14.387Z,21.79
2017-03-30T21:03:14.182Z,21.79
2017-03-30T21:04:14.087Z,21.86
2017-03-30T21:05:14.461Z,21.75
2017-03-30T21:06:15.111Z,21.79
2017-03-30T21:07:14.105Z,21.77
2017-03-30T21:08:14.475Z,21.75
2017-03-30T21:09:14.116Z,21.75
2017-03-30T21:10:14.439Z,21.75
2017-03-30T21:11:14.498Z,21.75
2017-03-30T21:12:14.241Z,21.77
2017-03-30T21:13:14.247Z,21.69
2017-03-30T21:14:14.516Z,21.72
2017-03-30T21:15:15.574Z,21.77
2017-03-30T21:16:14.477Z,21.74
2017-03-30T21:17:14.935Z,21.75
2017-03-30T21:18:13.918Z,21.67
2017-03-30T21:19:14.547Z,21.72
2017-03-30T21:20:14.549Z,21.71
2017-03-30T21:21:14.608Z,21.65
2017-03-30T21:22:14.564Z,21.72
2017-03-30T21:23:14.623Z,21.71
2017-03-30T21:24:14.625Z,21.69
2017-03-30T21:25:14.009Z,21.74
2017-03-30T21:26:15.448Z,21.74
2017-03-30T21:27:14.606Z,21.71
2017-03-30T21:28:14.750Z,21.69
2017-03-30T21:29:14.299Z,21.67
2017-03-30T21:30:14.669Z,21.68
2017-03-30T21:31:14.675Z,21.69
2017-03-30T21:32:14.609Z,21.72
2017-03-30T21:33:14.321Z,21.68
2017-03-30T21:34:14.278Z,21.75
2017-03-30T21:35:14.332Z,21.67
2017-03-30T21:36:14.655Z,21.75
2017-03-30T21:37:14.946Z,21.67
2017-03-30T21:38:14.666Z,21.65
2017-03-30T21:39:14.617Z,21.69
2017-03-30T21:40:14.627Z,21.64
2017-03-30T21:41:14.632Z,21.64
2017-03-30T21:42:14.689Z,21.65
2017-03-30T21:43:14.797Z,21.65
2017-03-30T21:44:14.648Z,21.67
2017-03-30T21:45:14.659Z,21.59
2017-03-30T21:46:14.712Z,21.61
2017-03-30T21:47:14.722Z,21.64
2017-03-30T21:48:15.613Z,21.65
2017-03-30T21:49:14.682Z,21.67
2017-03-30T21:50:14.889Z,21.62
2017-03-30T21:51:14.697Z,21.65
2017-03-30T21:52:14.758Z,21.64
2017-03-30T21:53:14.756Z,21.68
2017-03-30T21:54:15.060Z,21.59
2017-03-30T21:55:14.725Z,21.61
2017-03-30T21:56:14.735Z,21.64
2017-03-30T21:57:14.835Z,21.67
2017-03-30T21:58:14.736Z,21.61
2017-03-30T21:59:15.130Z,21.64
2017-03-30T22:00:14.750Z,21.65
2017-03-30T22:01:14.809Z,21.65
2017-03-30T22:02:14.450Z,21.62
2017-03-30T22:03:14.768Z,21.68
2017-03-30T22:04:14.776Z,21.68
2017-03-30T22:05:14.465Z,21.65
2017-03-30T22:06:14.788Z,21.67
2017-03-30T22:07:14.792Z,21.68
2017-03-30T22:08:14.174Z,21.68
2017-03-30T22:09:14.538Z,21.61
2017-03-30T22:10:15.200Z,21.67
2017-03-30T22:11:14.877Z,21.61
2017-03-30T22:12:14.872Z,21.65
2017-03-30T22:13:14.828Z,21.59
2017-03-30T22:14:14.521Z,21.56
2017-03-30T22:15:14.218Z,21.64
2017-03-30T22:16:14.849Z,21.65
2017-03-30T22:17:14.907Z,21.59
2017-03-30T22:18:14.857Z,21.58
2017-03-30T22:19:14.865Z,21.58
2017-03-30T22:20:14.872Z,21.56
2017-03-30T22:21:15.830Z,21.59
2017-03-30T22:22:14.890Z,21.61
2017-03-30T22:23:15.228Z,21.56
2017-03-30T22:24:14.684Z,21.62
2017-03-30T22:25:14.641Z,21.58
2017-03-30T22:26:14.958Z,21.62
2017-03-30T22:27:14.964Z,21.52
2017-03-30T22:28:14.979Z,21.64
2017-03-30T22:29:14.932Z,21.64
2017-03-30T22:30:14.933Z,21.61
2017-03-30T22:31:15.037Z,21.59
2017-03-30T22:32:15.832Z,21.53
2017-03-30T22:33:14.952Z,21.67
2017-03-30T22:34:15.242Z,21.52
2017-03-30T22:35:15.014Z,21.56
2017-03-30T22:36:14.970Z,21.61
2017-03-30T22:37:14.974Z,21.56
2017-03-30T22:38:14.665Z,21.64
2017-03-30T22:39:14.986Z,21.54
2017-03-30T22:40:14.991Z,21.58
2017-03-30T22:41:14.690Z,21.58
2017-03-30T22:42:15.008Z,21.65
2017-03-30T22:43:16.216Z,21.54
2017-03-30T22:44:15.073Z,21.54
2017-03-30T22:45:15.864Z,21.53
2017-03-30T22:46:15.077Z,21.56
2017-03-30T22:47:14.975Z,21.52
2017-03-30T22:48:14.777Z,21.56
2017-03-30T22:49:15.048Z,21.5
2017-03-30T22:50:15.057Z,21.53
2017-03-30T22:51:15.059Z,21.5
2017-03-30T22:52:14.754Z,21.53
2017-03-30T22:53:15.070Z,21.49
2017-03-30T22:54:16.176Z,21.58
2017-03-30T22:55:14.775Z,21.53
2017-03-30T22:56:15.492Z,21.56
2017-03-30T22:57:15.094Z,21.53
2017-03-30T22:58:15.152Z,21.53
2017-03-30T22:59:15.163Z,21.52
2017-03-30T23:00:15.166Z,21.54
2017-03-30T23:01:15.126Z,21.59
2017-03-30T23:02:14.866Z,21.53
2017-03-30T23:03:15.133Z,21.53
2017-03-30T23:04:15.137Z,21.52
2017-03-30T23:05:15.981Z,21.53
2017-03-30T23:06:15.152Z,21.53
2017-03-30T23:07:15.044Z,21.54
2017-03-30T23:08:15.160Z,21.5
2017-03-30T23:09:15.170Z,21.52
2017-03-30T23:10:15.572Z,21.53
2017-03-30T23:11:15.233Z,21.5
2017-03-30T23:12:14.872Z,21.56
2017-03-30T23:13:14.927Z,21.5
2017-03-30T23:14:15.252Z,21.56
2017-03-30T23:15:14.893Z,21.5
2017-03-30T23:16:15.908Z,21.53
2017-03-30T23:17:15.263Z,21.52
2017-03-30T23:18:15.313Z,21.47
2017-03-30T23:19:15.278Z,21.5
2017-03-30T23:20:15.235Z,21.5
2017-03-30T23:21:15.291Z,21.56
2017-03-30T23:22:15.245Z,21.4
2017-03-30T23:23:15.251Z,21.52
2017-03-30T23:24:14.632Z,21.53
2017-03-30T23:25:15.264Z,21.49
2017-03-30T23:26:14.959Z,21.52
2017-03-30T23:27:16.058Z,21.54
2017-03-30T23:28:15.381Z,21.42
2017-03-30T23:29:15.285Z,21.5
2017-03-30T23:30:15.289Z,21.4
2017-03-30T23:31:15.298Z,21.43
2017-03-30T23:32:14.988Z,21.4
2017-03-30T23:33:14.994Z,21.38
2017-03-30T23:34:15.365Z,21.43
2017-03-30T23:35:15.472Z,21.49
2017-03-30T23:36:15.380Z,21.42
2017-03-30T23:37:15.337Z,21.37
2017-03-30T23:38:15.636Z,21.4
2017-03-30T23:39:15.082Z,21.37
2017-03-30T23:40:15.400Z,21.37
2017-03-30T23:41:15.096Z,21.4
2017-03-30T23:42:16.335Z,21.47
2017-03-30T23:43:15.417Z,21.37
2017-03-30T23:44:15.377Z,21.43
2017-03-30T23:45:15.433Z,21.42
2017-03-30T23:46:15.075Z,21.4
2017-03-30T23:47:15.442Z,21.43
2017-03-30T23:48:15.140Z,21.43
2017-03-30T23:49:15.705Z,21.44
2017-03-30T23:50:15.459Z,21.44
2017-03-30T23:51:15.515Z,21.42
2017-03-30T23:52:15.424Z,21.42
2017-03-30T23:53:16.780Z,21.4
2017-03-30T23:54:15.487Z,21.43
2017-03-30T23:55:15.127Z,21.4
2017-03-30T23:56:15.503Z,21.46
2017-03-30T23:57:15.451Z,21.4
2017-03-30T23:58:15.459Z,21.42
2017-03-30T23:59:15.513Z,21.42
